createdAt,value
2019-04-01T00:00:59.296Z,6.90
2019-04-01T00:03:29.174Z,6.90
2019-04-01T00:05:58.765Z,6.80
2019-04-01T00:08:28.372Z,6.70
2019-04-01T00:10:57.982Z,6.60
2019-04-01T00:13:27.609Z,6.60
2019-04-01T00:15:57.236Z,6.60
2019-04-01T00:18:26.830Z,6.70
2019-04-01T00:20:56.451Z,6.70
2019-04-01T00:23:26.041Z,6.80
2019-04-01T00:25:55.662Z,6.90
2019-04-01T00:28:25.326Z,6.90
2019-04-01T00:30:54.949Z,6.70
2019-04-01T00:33:24.533Z,6.60
2019-04-01T00:35:54.159Z,6.50
2019-04-01T00:38:23.752Z,6.50
2019-04-01T00:40:53.412Z,6.40
2019-04-01T00:43:24.695Z,6.50
2019-04-01T00:45:55.905Z,6.40
2019-04-01T00:48:25.493Z,6.40
2019-04-01T00:50:55.117Z,6.20
2019-04-01T00:53:24.705Z,6.20
2019-04-01T00:55:54.396Z,6.30
2019-04-01T00:58:23.992Z,6.10
2019-04-01T01:00:53.612Z,6.00
2019-04-01T01:03:23.203Z,6.00
2019-04-01T01:05:52.829Z,5.90
2019-04-01T01:08:22.419Z,5.90
2019-04-01T01:10:52.006Z,5.90
2019-04-01T01:13:21.631Z,6.00
2019-04-01T01:15:51.220Z,5.90
2019-04-01T01:18:20.847Z,5.90
2019-04-01T01:20:50.459Z,5.90
2019-04-01T01:23:20.080Z,6.10
2019-04-01T01:25:49.675Z,6.20
2019-04-01T01:28:19.286Z,6.30
2019-04-01T01:30:48.974Z,6.20
2019-04-01T01:33:18.592Z,6.10
2019-04-01T01:35:48.183Z,6.10
2019-04-01T01:38:17.807Z,6.10
2019-04-01T01:40:47.404Z,6.00
2019-04-01T01:43:17.021Z,6.00
2019-04-01T01:45:46.629Z,6.00
2019-04-01T01:48:16.219Z,6.00
2019-04-01T01:50:45.838Z,5.80
2019-04-01T01:53:15.453Z,5.90
2019-04-01T01:55:45.072Z,5.90
2019-04-01T01:58:14.767Z,6.00
2019-04-01T02:00:44.397Z,5.90
2019-04-01T02:03:13.986Z,5.90
2019-04-01T02:05:43.688Z,5.90
2019-04-01T02:08:13.279Z,5.90
2019-04-01T02:10:43.014Z,5.80
2019-04-01T02:13:12.615Z,5.70
2019-04-01T02:15:42.241Z,5.50
2019-04-01T02:18:11.829Z,5.30
2019-04-01T02:20:41.423Z,5.20
2019-04-01T02:23:11.044Z,5.30
2019-04-01T02:25:40.643Z,5.40
2019-04-01T02:28:10.289Z,5.50
2019-04-01T02:30:39.877Z,5.60
2019-04-01T02:33:09.492Z,5.60
2019-04-01T02:35:39.114Z,5.50
2019-04-01T02:38:08.728Z,5.30
2019-04-01T02:40:38.390Z,5.10
2019-04-01T02:43:09.616Z,4.90
2019-04-01T02:45:39.215Z,4.80
2019-04-01T02:48:08.827Z,4.80
2019-04-01T02:50:38.485Z,4.80
2019-04-01T02:53:08.083Z,4.90
2019-04-01T02:55:37.682Z,4.90
2019-04-01T02:58:07.304Z,4.80
2019-04-01T03:00:36.914Z,4.90
2019-04-01T03:03:06.532Z,4.90
2019-04-01T03:05:36.519Z,5.00
2019-04-01T03:08:06.147Z,5.00
2019-04-01T03:10:35.847Z,5.00
2019-04-01T03:13:05.456Z,5.00
2019-04-01T03:15:35.057Z,5.10
2019-04-01T03:18:04.793Z,5.10
2019-04-01T03:20:35.024Z,5.10
2019-04-01T03:23:05.320Z,5.10
2019-04-01T03:25:35.434Z,5.00
2019-04-01T03:28:05.097Z,4.90
2019-04-01T03:30:34.757Z,4.80
2019-04-01T03:33:04.351Z,4.80
2019-04-01T03:35:33.971Z,4.90
2019-04-01T03:38:03.670Z,4.90
2019-04-01T03:40:33.289Z,5.00
2019-04-01T03:43:02.984Z,5.10
2019-04-01T03:45:32.601Z,5.10
2019-04-01T03:48:02.297Z,5.20
2019-04-01T03:50:32.017Z,5.30
2019-04-01T03:53:01.603Z,5.40
2019-04-01T03:55:31.199Z,5.50
2019-04-01T03:58:00.817Z,5.70
2019-04-01T04:00:30.411Z,5.90
2019-04-01T04:03:00.034Z,5.90
2019-04-01T04:05:29.881Z,5.80
2019-04-01T04:07:59.575Z,5.80
2019-04-01T04:10:29.180Z,5.70
2019-04-01T04:12:58.782Z,5.60
2019-04-01T04:15:28.532Z,5.60
2019-04-01T04:17:58.227Z,5.70
2019-04-01T04:20:27.843Z,5.80
2019-04-01T04:22:57.515Z,6.00
2019-04-01T04:25:27.511Z,6.20
2019-04-01T04:27:57.245Z,6.40
2019-04-01T04:30:27.016Z,6.50
2019-04-01T04:32:56.670Z,6.50
2019-04-01T04:35:26.263Z,6.60
2019-04-01T04:37:55.963Z,6.50
2019-04-01T04:40:25.585Z,6.60
2019-04-01T04:42:55.201Z,6.70
2019-04-01T04:45:24.802Z,6.80
2019-04-01T04:47:54.522Z,6.90
2019-04-01T04:50:24.125Z,6.90
2019-04-01T04:52:53.722Z,6.90
2019-04-01T04:55:23.370Z,6.90
2019-04-01T04:57:53.058Z,6.90
2019-04-01T05:00:22.829Z,7.00
2019-04-01T05:02:52.527Z,6.80
2019-04-01T05:05:22.219Z,6.80
2019-04-01T05:07:53.444Z,6.90
2019-04-01T05:10:23.077Z,7.00
2019-04-01T05:12:52.658Z,7.10
2019-04-01T05:15:22.282Z,7.20
2019-04-01T05:17:51.880Z,7.30
2019-04-01T05:20:21.493Z,7.50
2019-04-01T05:22:51.817Z,7.60
2019-04-01T05:25:21.758Z,7.70
2019-04-01T05:27:54.234Z,7.70
2019-04-01T05:30:23.823Z,7.60
2019-04-01T05:32:56.165Z,7.60
2019-04-01T05:35:26.776Z,7.60
2019-04-01T05:37:56.996Z,7.60
2019-04-01T05:40:27.766Z,7.80
2019-04-01T05:42:57.634Z,8.00
2019-04-01T05:45:27.229Z,8.10
2019-04-01T05:47:57.850Z,8.10
2019-04-01T05:50:27.727Z,8.20
2019-04-01T05:52:57.476Z,8.30
2019-04-01T05:55:27.248Z,8.40
2019-04-01T05:57:57.002Z,8.40
2019-04-01T06:00:31.342Z,8.40
2019-04-01T06:03:01.032Z,8.50
2019-04-01T06:05:30.724Z,8.60
2019-04-01T06:08:00.522Z,8.70
2019-04-01T06:10:30.213Z,8.80
2019-04-01T06:13:00.238Z,8.80
2019-04-01T06:15:29.978Z,9.00
2019-04-01T06:17:59.791Z,9.10
2019-04-01T06:20:29.451Z,9.30
2019-04-01T06:22:59.605Z,9.40
2019-04-01T06:25:29.227Z,9.40
2019-04-01T06:27:58.893Z,9.40
2019-04-01T06:30:28.593Z,9.30
2019-04-01T06:32:58.439Z,9.40
2019-04-01T06:35:28.058Z,9.50
2019-04-01T06:37:57.658Z,9.50
2019-04-01T06:40:27.347Z,9.50
2019-04-01T06:42:56.955Z,9.60
2019-04-01T06:45:26.888Z,9.60
2019-04-01T06:47:56.513Z,9.60
2019-04-01T06:50:26.175Z,9.70
2019-04-01T06:52:56.019Z,9.80
2019-04-01T06:55:25.614Z,9.80
2019-04-01T06:57:55.539Z,9.90
2019-04-01T07:00:25.320Z,10.00
2019-04-01T07:02:55.098Z,10.10
2019-04-01T07:05:24.709Z,10.20
2019-04-01T07:07:54.576Z,10.20
2019-04-01T07:10:24.948Z,10.20
2019-04-01T07:12:54.833Z,10.30
2019-04-01T07:15:24.435Z,10.50
2019-04-01T07:17:54.341Z,10.60
2019-04-01T07:20:23.940Z,10.70
2019-04-01T07:22:53.610Z,10.80
2019-04-01T07:25:23.477Z,11.00
2019-04-01T07:27:53.168Z,11.10
2019-04-01T07:30:22.975Z,11.30
2019-04-01T07:32:52.671Z,11.40
2019-04-01T07:35:22.541Z,11.40
2019-04-01T07:37:52.709Z,11.40
2019-04-01T07:40:22.337Z,11.40
2019-04-01T07:42:53.130Z,11.50
2019-04-01T07:45:22.919Z,11.50
2019-04-01T07:47:52.854Z,11.60
2019-04-01T07:50:22.555Z,11.70
2019-04-01T07:52:55.304Z,11.80
2019-04-01T07:55:24.008Z,12.00
2019-04-01T07:57:53.709Z,12.10
2019-04-01T08:00:23.619Z,12.20
2019-04-01T08:02:53.488Z,12.30
2019-04-01T08:05:25.840Z,12.40
2019-04-01T08:07:54.953Z,12.60
2019-04-01T08:10:24.568Z,12.70
2019-04-01T08:12:54.330Z,12.90
2019-04-01T08:15:23.925Z,13.00
2019-04-01T08:17:53.622Z,13.20
2019-04-01T08:20:23.329Z,13.40
2019-04-01T08:22:52.925Z,13.50
2019-04-01T08:25:22.847Z,13.80
2019-04-01T08:27:52.559Z,14.00
2019-04-01T08:30:22.369Z,14.20
2019-04-01T08:33:02.012Z,14.40
2019-04-01T08:35:31.856Z,14.60
2019-04-01T08:38:01.463Z,14.60
2019-04-01T08:40:31.163Z,14.80
2019-04-01T08:43:00.788Z,14.80
2019-04-01T08:45:30.421Z,14.90
2019-04-01T08:48:00.238Z,15.00
2019-04-01T08:50:29.875Z,15.20
2019-04-01T08:52:59.481Z,15.30
2019-04-01T08:55:29.325Z,15.40
2019-04-01T08:57:58.950Z,15.60
2019-04-01T09:00:28.585Z,15.80
2019-04-01T09:02:58.254Z,16.00
2019-04-01T09:05:28.765Z,16.30
2019-04-01T09:07:59.411Z,16.60
2019-04-01T09:10:29.181Z,16.70
2019-04-01T09:12:59.852Z,16.90
2019-04-01T09:15:29.453Z,17.10
2019-04-01T09:17:59.077Z,17.30
2019-04-01T09:20:28.678Z,17.40
2019-04-01T09:22:59.364Z,17.60
2019-04-01T09:25:29.120Z,17.50
2019-04-01T09:27:58.717Z,17.20
2019-04-01T09:30:28.418Z,17.30
2019-04-01T09:32:58.016Z,17.50
2019-04-01T09:35:27.648Z,17.50
2019-04-01T09:37:57.248Z,17.30
2019-04-01T09:40:26.950Z,17.10
2019-04-01T09:42:56.584Z,17.20
2019-04-01T09:45:26.215Z,17.40
2019-04-01T09:47:55.808Z,17.40
2019-04-01T09:50:25.437Z,17.50
2019-04-01T09:52:55.119Z,17.70
2019-04-01T09:55:24.741Z,17.70
2019-04-01T09:57:54.375Z,17.70
2019-04-01T10:00:24.205Z,17.80
2019-04-01T10:02:53.846Z,17.90
2019-04-01T10:05:23.441Z,18.00
2019-04-01T10:07:53.082Z,17.80
2019-04-01T10:10:22.904Z,17.90
2019-04-01T10:12:52.522Z,18.10
2019-04-01T10:15:22.262Z,18.10
2019-04-01T10:17:51.899Z,18.10
2019-04-01T10:20:21.663Z,18.10
2019-04-01T10:22:51.265Z,18.30
2019-04-01T10:25:20.893Z,18.60
2019-04-01T10:27:50.664Z,18.80
2019-04-01T10:30:22.504Z,18.90
2019-04-01T10:32:52.173Z,18.80
2019-04-01T10:35:22.320Z,18.70
2019-04-01T10:37:51.964Z,18.50
2019-04-01T10:40:21.699Z,18.40
2019-04-01T10:42:51.297Z,18.30
2019-04-01T10:45:21.324Z,18.20
2019-04-01T10:47:50.963Z,18.40
2019-04-01T10:50:20.790Z,18.50
2019-04-01T10:52:50.454Z,18.60
2019-04-01T10:55:20.219Z,18.70
2019-04-01T11:00:34.632Z,18.80
2019-04-01T11:03:06.221Z,19.00
2019-04-01T11:05:35.719Z,19.30
2019-04-01T11:08:05.478Z,19.30
2019-04-01T11:10:35.166Z,19.40
2019-04-01T11:13:04.794Z,19.30
2019-04-01T11:15:34.420Z,19.30
2019-04-01T11:18:04.047Z,19.10
2019-04-01T11:20:33.653Z,18.90
2019-04-01T11:23:05.006Z,18.80
2019-04-01T11:25:34.776Z,18.80
2019-04-01T11:28:04.522Z,18.80
2019-04-01T11:30:36.947Z,18.90
2019-04-01T11:33:07.709Z,19.10
2019-04-01T11:35:37.053Z,19.00
2019-04-01T11:38:06.703Z,19.00
2019-04-01T11:40:38.781Z,19.00
2019-04-01T11:43:07.728Z,19.00
2019-04-01T11:45:37.329Z,19.10
2019-04-01T11:48:06.955Z,19.30
2019-04-01T11:50:36.525Z,19.20
2019-04-01T11:53:06.344Z,19.00
2019-04-01T11:55:36.763Z,18.70
2019-04-01T11:58:06.446Z,18.70
2019-04-01T12:00:36.073Z,18.80
2019-04-01T12:03:05.816Z,18.90
2019-04-01T12:05:35.440Z,18.90
2019-04-01T12:08:05.169Z,18.90
2019-04-01T12:10:34.917Z,18.90
2019-04-01T12:13:04.973Z,18.70
2019-04-01T12:15:34.601Z,18.80
2019-04-01T12:18:04.374Z,18.90
2019-04-01T12:20:34.000Z,19.00
2019-04-01T12:23:03.631Z,19.10
2019-04-01T12:25:33.523Z,19.30
2019-04-01T12:28:03.229Z,19.30
2019-04-01T12:30:32.832Z,19.20
2019-04-01T12:33:02.703Z,19.00
2019-04-01T12:35:32.341Z,18.80
2019-04-01T12:38:02.013Z,18.70
2019-04-01T12:40:31.652Z,18.80
2019-04-01T12:43:01.254Z,18.90
2019-04-01T12:45:30.858Z,19.10
2019-04-01T12:48:00.486Z,19.20
2019-04-01T12:50:30.181Z,19.40
2019-04-01T12:52:59.786Z,19.50
2019-04-01T12:55:29.417Z,19.70
2019-04-01T12:57:59.105Z,19.40
2019-04-01T13:00:29.282Z,19.40
2019-04-01T13:02:59.022Z,19.40
2019-04-01T13:05:28.631Z,19.60
2019-04-01T13:07:58.266Z,19.80
2019-04-01T13:10:27.874Z,19.70
2019-04-01T13:12:57.479Z,19.60
2019-04-01T13:15:27.114Z,19.50
2019-04-01T13:17:56.739Z,19.50
2019-04-01T13:20:37.755Z,19.40
2019-04-01T13:22:57.744Z,19.40
2019-04-01T13:25:27.365Z,19.60
2019-04-01T13:27:57.249Z,19.70
2019-04-01T13:30:27.209Z,19.80
2019-04-01T13:32:56.809Z,19.70
2019-04-01T13:35:26.428Z,19.60
2019-04-01T13:37:56.034Z,19.50
2019-04-01T13:40:25.741Z,19.60
2019-04-01T13:42:55.374Z,19.70
2019-04-01T13:45:31.175Z,19.50
2019-04-01T13:47:56.362Z,19.60
2019-04-01T13:50:26.032Z,19.50
2019-04-01T13:52:55.658Z,19.30
2019-04-01T13:55:25.258Z,19.20
2019-04-01T13:57:54.894Z,19.20
2019-04-01T14:00:27.411Z,19.20
2019-04-01T14:02:55.904Z,19.40
2019-04-01T14:05:25.507Z,19.30
2019-04-01T14:07:55.138Z,19.10
2019-04-01T14:10:24.898Z,19.00
2019-04-01T14:12:54.748Z,19.00
2019-04-01T14:15:24.345Z,19.10
2019-04-01T14:17:53.972Z,19.10
2019-04-01T14:20:23.574Z,19.10
2019-04-01T14:22:54.753Z,19.10
2019-04-01T14:25:24.349Z,19.20
2019-04-01T14:27:53.949Z,19.40
2019-04-01T14:30:23.582Z,19.30
2019-04-01T14:32:53.182Z,19.20
2019-04-01T14:35:23.863Z,19.20
2019-04-01T14:37:53.697Z,18.90
2019-04-01T14:40:23.331Z,18.70
2019-04-01T14:42:52.972Z,18.80
2019-04-01T14:45:22.607Z,18.70
2019-04-01T14:47:57.649Z,18.70
2019-04-01T14:50:23.525Z,18.60
2019-04-01T14:52:53.144Z,18.50
2019-04-01T14:55:22.768Z,18.50
2019-04-01T14:57:52.396Z,18.50
2019-04-01T15:00:22.277Z,18.50
2019-04-01T15:02:51.912Z,18.40
2019-04-01T15:05:21.512Z,18.50
2019-04-01T15:07:51.136Z,18.50
2019-04-01T15:10:21.366Z,18.50
2019-04-01T15:13:04.541Z,18.50
2019-04-01T15:15:22.480Z,18.60
2019-04-01T15:17:52.110Z,18.50
2019-04-01T15:20:21.933Z,18.40
2019-04-01T15:22:52.407Z,18.30
2019-04-01T15:25:22.951Z,18.40
2019-04-01T15:27:52.586Z,18.40
2019-04-01T15:30:22.187Z,18.40
2019-04-01T15:32:52.162Z,18.20
2019-04-01T15:35:21.986Z,18.10
2019-04-01T15:37:52.152Z,18.10
2019-04-01T15:40:22.060Z,18.00
2019-04-01T15:42:51.684Z,18.00
2019-04-01T15:45:21.353Z,18.00
2019-04-01T15:47:50.980Z,18.00
2019-04-01T15:50:28.271Z,18.00
2019-04-01T15:52:52.031Z,18.00
2019-04-01T15:55:21.703Z,18.00
2019-04-01T15:57:51.339Z,18.00
2019-04-01T16:00:21.642Z,18.00
2019-04-01T16:02:51.271Z,18.00
2019-04-01T16:05:20.940Z,18.00
2019-04-01T16:07:50.566Z,18.00
2019-04-01T16:10:21.127Z,18.00
2019-04-01T16:12:50.977Z,17.90
2019-04-01T16:15:20.644Z,17.90
2019-04-01T16:17:53.611Z,17.70
2019-04-01T16:20:21.685Z,17.60
2019-04-01T16:22:51.280Z,17.50
2019-04-01T16:25:20.917Z,17.30
2019-04-01T16:27:50.535Z,17.10
2019-04-01T16:30:20.133Z,17.00
2019-04-01T16:32:49.762Z,17.00
2019-04-01T16:35:19.363Z,17.00
2019-04-01T16:37:48.964Z,16.90
2019-04-01T16:40:18.764Z,16.90
2019-04-01T16:42:48.479Z,16.80
2019-04-01T16:45:18.248Z,16.70
2019-04-01T16:47:48.550Z,16.60
2019-04-01T16:50:18.568Z,16.50
2019-04-01T16:52:48.264Z,16.40
2019-04-01T16:55:18.778Z,16.40
2019-04-01T16:57:48.549Z,16.30
2019-04-01T17:00:19.181Z,16.30
2019-04-01T17:02:50.086Z,16.20
2019-04-01T17:05:27.197Z,16.10
2019-04-01T17:07:56.797Z,16.00
2019-04-01T17:10:27.036Z,15.90
2019-04-01T17:12:56.656Z,15.90
2019-04-01T17:15:26.328Z,15.70
2019-04-01T17:17:55.957Z,15.60
2019-04-01T17:20:25.592Z,15.40
2019-04-01T17:22:55.194Z,15.30
2019-04-01T17:25:26.147Z,15.10
2019-04-01T17:27:56.069Z,15.00
2019-04-01T17:30:25.740Z,14.90
2019-04-01T17:32:55.365Z,14.80
2019-04-01T17:35:24.962Z,14.50
2019-04-01T17:37:54.657Z,14.40
2019-04-01T17:40:24.285Z,14.30
2019-04-01T17:42:53.884Z,14.10
2019-04-01T17:45:33.846Z,13.90
2019-04-01T17:48:04.603Z,13.70
2019-04-01T17:50:35.172Z,13.70
2019-04-01T17:53:07.786Z,13.70
2019-04-01T17:55:37.453Z,13.60
2019-04-01T17:58:07.798Z,13.60
2019-04-01T18:00:39.174Z,13.60
2019-04-01T18:03:09.475Z,13.60
2019-04-01T18:05:39.301Z,13.60
2019-04-01T18:08:09.003Z,13.70
2019-04-01T18:10:38.597Z,13.70
2019-04-01T18:13:08.231Z,13.80
2019-04-01T18:15:37.964Z,13.80
2019-04-01T18:18:07.594Z,13.80
2019-04-01T18:20:37.218Z,13.90
2019-04-01T18:23:06.820Z,14.00
2019-04-01T18:25:36.513Z,14.00
2019-04-01T18:28:06.114Z,14.10
2019-04-01T18:30:35.879Z,14.10
2019-04-01T18:33:05.573Z,14.00
2019-04-01T18:35:35.336Z,13.90
2019-04-01T18:38:04.936Z,13.90
2019-04-01T18:40:35.826Z,13.90
2019-04-01T18:43:05.544Z,13.90
2019-04-01T18:45:35.177Z,13.90
2019-04-01T18:48:04.878Z,13.90
2019-04-01T18:50:34.488Z,13.90
2019-04-01T18:53:04.182Z,13.90
2019-04-01T18:55:34.282Z,13.90
2019-04-01T18:58:03.955Z,13.90
2019-04-01T19:00:33.621Z,13.80
2019-04-01T19:03:03.248Z,13.80
2019-04-01T19:05:32.917Z,13.70
2019-04-01T19:08:04.184Z,13.50
2019-04-01T19:10:34.019Z,13.50
2019-04-01T19:13:06.167Z,13.40
2019-04-01T19:15:35.949Z,13.40
2019-04-01T19:18:06.348Z,13.40
2019-04-01T19:20:35.951Z,13.50
2019-04-01T19:23:05.645Z,13.40
2019-04-01T19:25:35.273Z,13.50
2019-04-01T19:28:04.893Z,13.50
2019-04-01T19:30:34.520Z,13.50
2019-04-01T19:33:06.664Z,13.40
2019-04-01T19:35:35.471Z,13.30
2019-04-01T19:38:07.161Z,13.20
2019-04-01T19:40:36.521Z,13.10
2019-04-01T19:43:06.218Z,13.10
2019-04-01T19:45:36.029Z,13.00
2019-04-01T19:48:05.722Z,12.90
2019-04-01T19:50:35.437Z,12.90
2019-04-01T19:53:05.127Z,12.80
2019-04-01T19:55:34.757Z,12.70
2019-04-01T19:58:05.204Z,12.60
2019-04-01T20:00:35.179Z,12.70
2019-04-01T20:03:04.865Z,12.70
2019-04-01T20:05:34.570Z,12.70
2019-04-01T20:08:04.237Z,12.50
2019-04-01T20:10:34.138Z,12.40
2019-04-01T20:13:03.753Z,12.30
2019-04-01T20:15:33.373Z,12.20
2019-04-01T20:18:03.005Z,12.10
2019-04-01T20:20:32.614Z,12.10
2019-04-01T20:23:02.250Z,12.00
2019-04-01T20:25:31.849Z,11.80
2019-04-01T20:28:01.545Z,11.70
2019-04-01T20:30:31.215Z,11.50
2019-04-01T20:33:00.836Z,11.40
2019-04-01T20:35:30.532Z,11.10
2019-04-01T20:38:00.200Z,11.00
2019-04-01T20:40:29.821Z,10.90
2019-04-01T20:42:59.424Z,10.70
2019-04-01T20:45:29.141Z,10.40
2019-04-01T20:47:58.773Z,10.30
2019-04-01T20:50:28.541Z,10.20
2019-04-01T20:52:58.150Z,10.10
2019-04-01T20:55:27.766Z,10.00
2019-04-01T20:57:57.366Z,10.00
2019-04-01T21:00:26.989Z,9.90
2019-04-01T21:02:56.587Z,9.80
2019-04-01T21:05:26.209Z,9.60
2019-04-01T21:07:55.827Z,9.50
2019-04-01T21:10:25.449Z,9.40
2019-04-01T21:12:55.042Z,9.30
2019-04-01T21:15:24.659Z,9.20
2019-04-01T21:17:54.283Z,9.20
2019-04-01T21:20:23.974Z,9.10
2019-04-01T21:22:53.563Z,9.00
2019-04-01T21:25:23.191Z,8.90
2019-04-01T21:27:53.165Z,8.70
2019-04-01T21:30:23.319Z,8.60
2019-04-01T21:32:52.911Z,8.60
2019-04-01T21:35:22.548Z,8.70
2019-04-01T21:37:52.140Z,8.80
2019-04-01T21:40:21.750Z,8.90
2019-04-01T21:42:51.517Z,9.00
2019-04-01T21:45:21.561Z,9.00
2019-04-01T21:47:51.183Z,9.00
2019-04-01T21:50:20.976Z,8.90
2019-04-01T21:52:50.567Z,8.80
2019-04-01T21:55:20.191Z,8.70
2019-04-01T21:57:51.160Z,8.60
2019-04-01T22:00:39.172Z,8.50
2019-04-01T22:03:09.013Z,8.60
2019-04-01T22:05:38.672Z,8.50
2019-04-01T22:08:08.276Z,8.30
2019-04-01T22:10:37.898Z,8.00
2019-04-01T22:13:07.523Z,8.00
2019-04-01T22:15:37.110Z,7.90
2019-04-01T22:18:06.935Z,7.80
2019-04-01T22:20:36.620Z,7.70
2019-04-01T22:23:06.341Z,7.80
2019-04-01T22:25:36.215Z,7.80
2019-04-01T22:28:06.042Z,7.80
2019-04-01T22:30:35.663Z,7.90
2019-04-01T22:33:05.352Z,7.90
2019-04-01T22:35:39.065Z,7.80
2019-04-01T22:38:06.618Z,7.80
2019-04-01T22:40:36.291Z,7.90
2019-04-01T22:43:05.953Z,8.00
2019-04-01T22:45:35.574Z,8.00
2019-04-01T22:48:05.255Z,8.10
2019-04-01T22:50:34.858Z,8.10
2019-04-01T22:53:04.926Z,8.20
2019-04-01T22:55:34.551Z,8.30
2019-04-01T22:58:04.234Z,8.30
2019-04-01T23:00:33.822Z,8.40
2019-04-01T23:03:03.510Z,8.30
2019-04-01T23:05:33.138Z,8.20
2019-04-01T23:08:02.829Z,8.20
2019-04-01T23:10:32.399Z,8.20
2019-04-01T23:13:02.026Z,8.30
2019-04-01T23:15:31.617Z,8.30
2019-04-01T23:18:01.211Z,8.30
2019-04-01T23:20:30.831Z,8.40
2019-04-01T23:23:00.424Z,8.40
2019-04-01T23:25:30.045Z,8.50
2019-04-01T23:27:59.636Z,8.50
2019-04-01T23:30:29.256Z,8.60
2019-04-01T23:32:58.844Z,8.60
2019-04-01T23:35:28.471Z,8.60
2019-04-01T23:37:58.062Z,8.50
2019-04-01T23:40:27.659Z,8.40
2019-04-01T23:42:57.666Z,8.40
2019-04-01T23:45:27.547Z,8.40
2019-04-01T23:47:57.236Z,8.30
2019-04-01T23:50:26.826Z,8.20
2019-04-01T23:52:56.454Z,8.10
2019-04-01T23:55:26.119Z,8.00
2019-04-01T23:57:55.735Z,8.10
